Terminal Aerodrome Forecast
Issued by NWS

Home | Current Version | Previous Version | Text Only | Print | Product List | Glossary On
Versions: 1 2 3 4 5 6 7 8 9 10 11 12
244
FTUS43 KGRB 062340
TAFMTW
TAF
KMTW 062340Z 0700/0724 24008KT P6SM SCT015 OVC110
     FM070300 20006KT P6SM SCT040 OVC100
     FM070700 20008KT P6SM BKN100
     FM071200 22011G15KT P6SM BKN060 OVC090=

USA.gov is the U.S. government's official web portal to all federal, state and local government web resources and services.